createdAt,value
2023-04-11T00:01:10.137Z,53
2023-04-11T00:21:17.491Z,56
2023-04-11T00:41:09.829Z,59
2023-04-11T01:01:13.756Z,62
2023-04-11T01:21:10.144Z,58
2023-04-11T01:41:08.067Z,57
2023-04-11T02:01:07.899Z,59
2023-04-11T02:21:08.069Z,62
2023-04-11T02:41:08.954Z,64
2023-04-11T03:00:50.495Z,67
2023-04-11T03:20:47.328Z,70
2023-04-11T03:40:51.799Z,77
2023-04-11T04:01:09.081Z,84
2023-04-11T04:20:46.757Z,85
2023-04-11T04:40:50.779Z,88
2023-04-11T05:00:51.492Z,90
2023-04-11T05:20:48.361Z,91
2023-04-11T05:41:14.248Z,93
2023-04-11T06:01:10.019Z,93
2023-04-11T06:21:11.150Z,94
2023-04-11T06:41:14.014Z,94
2023-04-11T07:01:13.327Z,93
2023-04-11T07:21:08.641Z,93
2023-04-11T07:41:09.349Z,93
2023-04-11T08:01:12.558Z,91
2023-04-11T08:21:15.616Z,90
2023-04-11T08:41:19.248Z,91
2023-04-11T09:01:07.753Z,91
2023-04-11T09:21:08.155Z,90
2023-04-11T09:41:07.584Z,86
2023-04-11T10:01:07.871Z,86
2023-04-11T10:21:14.997Z,87
2023-04-11T10:41:09.296Z,86
2023-04-11T11:01:21.500Z,86
2023-04-11T11:21:24.729Z,82
2023-04-11T11:41:18.165Z,80
2023-04-11T12:01:10.738Z,79
2023-04-11T12:21:07.940Z,80
2023-04-11T12:41:42.792Z,79
2023-04-11T13:01:08.818Z,75
2023-04-11T13:21:10.335Z,74
2023-04-11T13:41:07.408Z,75
2023-04-11T14:01:12.222Z,77
2023-04-11T14:21:12.782Z,78
2023-04-11T14:41:08.279Z,81
2023-04-11T15:01:06.914Z,83
2023-04-11T15:21:14.013Z,87
2023-04-11T15:41:12.612Z,86
2023-04-11T16:01:08.281Z,86
2023-04-11T16:21:07.377Z,85
2023-04-11T16:41:09.236Z,86
2023-04-11T17:01:08.964Z,88
2023-04-11T17:21:15.265Z,87
2023-04-11T17:41:26.979Z,88
2023-04-11T18:01:14.581Z,88
2023-04-11T18:20:52.633Z,89
2023-04-11T18:40:57.076Z,90
2023-04-11T19:00:47.183Z,90
2023-04-11T19:20:54.713Z,90
2023-04-11T19:40:46.887Z,91
2023-04-11T20:00:47.949Z,90
2023-04-11T20:20:50.930Z,90
2023-04-11T20:40:49.723Z,90
2023-04-11T21:00:52.647Z,90
2023-04-11T21:20:46.335Z,89
2023-04-11T21:40:47.056Z,90
2023-04-11T22:00:50.511Z,90
2023-04-11T22:20:47.923Z,90
2023-04-11T22:40:46.415Z,91
2023-04-11T23:00:48.715Z,88
2023-04-11T23:21:10.494Z,89
2023-04-11T23:41:05.779Z,89
